createdAt,value
2018-07-28T00:02:08.964Z,19.50
2018-07-28T00:04:37.054Z,19.40
2018-07-28T00:07:05.138Z,19.40
2018-07-28T00:09:33.240Z,19.40
2018-07-28T00:12:01.315Z,19.40
2018-07-28T00:14:29.439Z,19.30
2018-07-28T00:16:57.555Z,19.30
2018-07-28T00:19:25.603Z,19.30
2018-07-28T00:21:53.663Z,19.20
2018-07-28T00:24:21.791Z,19.20
2018-07-28T00:29:17.734Z,19.20
2018-07-28T00:31:45.880Z,19.20
2018-07-28T00:34:13.950Z,19.20
2018-07-28T00:36:42.020Z,19.10
2018-07-28T00:39:12.395Z,19.10
2018-07-28T00:41:40.518Z,19.00
2018-07-28T00:44:08.691Z,19.10
2018-07-28T00:46:36.994Z,19.00
2018-07-28T00:49:05.724Z,19.00
2018-07-28T00:51:33.900Z,18.90
2018-07-28T00:54:01.971Z,19.00
2018-07-28T00:56:30.103Z,19.00
2018-07-28T00:58:58.204Z,19.00
2018-07-28T01:01:26.267Z,19.00
2018-07-28T01:03:54.348Z,18.90
2018-07-28T01:06:22.426Z,18.90
2018-07-28T01:08:50.575Z,18.90
2018-07-28T01:11:18.656Z,18.90
2018-07-28T01:13:46.772Z,18.90
2018-07-28T01:16:14.872Z,18.80
2018-07-28T01:18:42.979Z,18.80
2018-07-28T01:21:11.072Z,18.80
2018-07-28T01:23:39.142Z,18.70
2018-07-28T01:26:07.222Z,18.70
2018-07-28T01:28:35.311Z,18.70
2018-07-28T01:31:03.386Z,18.70
2018-07-28T01:33:31.467Z,18.60
2018-07-28T01:35:59.551Z,18.60
2018-07-28T01:38:27.610Z,18.60
2018-07-28T01:40:56.035Z,18.60
2018-07-28T01:43:24.092Z,18.70
2018-07-28T01:45:52.152Z,18.60
2018-07-28T01:48:20.263Z,18.60
2018-07-28T01:50:48.375Z,18.60
2018-07-28T01:53:16.464Z,18.60
2018-07-28T01:55:44.535Z,18.50
2018-07-28T01:58:12.615Z,18.50
2018-07-28T02:00:40.674Z,18.40
2018-07-28T02:03:08.746Z,18.50
2018-07-28T02:05:36.839Z,18.40
2018-07-28T02:08:05.251Z,18.40
2018-07-28T02:10:33.307Z,18.40
2018-07-28T02:13:01.400Z,18.40
2018-07-28T02:15:29.499Z,18.30
2018-07-28T02:17:57.567Z,18.30
2018-07-28T02:20:25.670Z,18.20
2018-07-28T02:22:53.820Z,18.10
2018-07-28T02:25:21.930Z,18.20
2018-07-28T02:27:49.983Z,18.10
2018-07-28T02:30:18.047Z,18.10
2018-07-28T02:32:46.140Z,18.10
2018-07-28T02:35:14.192Z,18.20
2018-07-28T02:37:42.261Z,18.20
2018-07-28T02:40:10.621Z,18.20
2018-07-28T02:42:38.737Z,18.30
2018-07-28T02:45:07.331Z,18.20
2018-07-28T02:47:35.395Z,18.10
2018-07-28T02:50:03.919Z,18.10
2018-07-28T02:52:32.008Z,18.10
2018-07-28T02:55:00.075Z,18.10
2018-07-28T02:57:28.282Z,18.10
2018-07-28T02:59:56.349Z,18.00
2018-07-28T03:02:24.453Z,18.00
2018-07-28T03:04:52.542Z,18.00
2018-07-28T03:07:20.635Z,18.00
2018-07-28T03:09:48.743Z,17.90
2018-07-28T03:12:16.811Z,17.90
2018-07-28T03:14:44.899Z,17.90
2018-07-28T03:17:12.989Z,17.90
2018-07-28T03:19:41.072Z,17.90
2018-07-28T03:22:09.159Z,17.90
2018-07-28T03:24:37.267Z,17.80
2018-07-28T03:27:05.703Z,17.80
2018-07-28T03:29:33.868Z,17.80
2018-07-28T03:32:02.061Z,17.70
2018-07-28T03:34:30.174Z,17.70
2018-07-28T03:36:58.231Z,17.70
2018-07-28T03:39:26.339Z,17.70
2018-07-28T03:41:54.411Z,17.70
2018-07-28T03:44:22.688Z,17.70
2018-07-28T03:46:50.771Z,17.70
2018-07-28T03:49:18.852Z,17.80
2018-07-28T03:51:46.932Z,17.80
2018-07-28T03:54:14.996Z,17.80
2018-07-28T03:56:43.103Z,17.80
2018-07-28T03:59:11.218Z,17.90
2018-07-28T04:01:39.271Z,17.90
2018-07-28T04:04:07.360Z,17.90
2018-07-28T04:06:35.441Z,18.00
2018-07-28T04:09:05.896Z,18.10
2018-07-28T04:11:33.983Z,18.10
2018-07-28T04:14:02.072Z,18.20
2018-07-28T04:16:30.185Z,18.20
2018-07-28T04:18:58.261Z,18.30
2018-07-28T04:21:26.343Z,18.30
2018-07-28T04:23:54.415Z,18.30
2018-07-28T04:26:22.478Z,18.30
2018-07-28T04:28:50.576Z,18.40
2018-07-28T04:31:18.683Z,18.50
2018-07-28T04:33:46.767Z,18.60
2018-07-28T04:36:14.886Z,18.60
2018-07-28T04:38:42.937Z,18.60
2018-07-28T04:41:11.087Z,18.70
2018-07-28T04:43:39.186Z,18.70
2018-07-28T04:46:07.347Z,18.80
2018-07-28T04:48:35.408Z,18.90
2018-07-28T04:51:03.512Z,18.90
2018-07-28T04:53:31.607Z,19.10
2018-07-28T04:55:59.689Z,19.20
2018-07-28T04:58:27.797Z,19.30
2018-07-28T05:03:23.737Z,19.60
2018-07-28T05:05:51.815Z,19.90
2018-07-28T05:08:19.903Z,20.10
2018-07-28T05:10:48.031Z,20.20
2018-07-28T05:13:16.107Z,20.40
2018-07-28T05:15:44.187Z,20.50
2018-07-28T05:18:12.299Z,20.60
2018-07-28T05:20:40.360Z,20.80
2018-07-28T05:23:08.465Z,20.90
2018-07-28T05:25:36.557Z,21.00
2018-07-28T05:28:04.657Z,21.00
2018-07-28T05:30:32.751Z,21.10
2018-07-28T05:33:00.823Z,21.30
2018-07-28T05:35:28.904Z,21.50
2018-07-28T05:37:56.992Z,21.70
2018-07-28T05:40:25.079Z,21.80
2018-07-28T05:42:53.163Z,21.90
2018-07-28T05:45:21.251Z,21.90
2018-07-28T05:47:49.315Z,22.20
2018-07-28T05:50:17.431Z,22.40
2018-07-28T05:52:45.604Z,22.60
2018-07-28T05:55:13.659Z,22.80
2018-07-28T05:57:41.739Z,23.00
2018-07-28T06:00:09.847Z,23.20
2018-07-28T06:02:37.979Z,23.30
2018-07-28T06:05:06.416Z,23.60
2018-07-28T06:07:34.499Z,23.80
2018-07-28T06:10:02.594Z,24.10
2018-07-28T06:12:30.691Z,24.20
2018-07-28T06:14:58.764Z,24.40
2018-07-28T06:17:26.865Z,24.60
2018-07-28T06:19:55.017Z,24.80
2018-07-28T06:22:23.079Z,24.80
2018-07-28T06:24:51.155Z,25.10
2018-07-28T06:27:19.308Z,25.00
2018-07-28T06:29:47.395Z,25.10
2018-07-28T06:32:15.479Z,25.40
2018-07-28T06:34:43.572Z,25.40
2018-07-28T06:37:11.643Z,25.60
2018-07-28T06:39:39.735Z,25.80
2018-07-28T06:42:07.792Z,26.00
2018-07-28T06:44:35.862Z,26.40
2018-07-28T06:47:03.951Z,26.60
2018-07-28T06:49:31.996Z,27.20
2018-07-28T06:52:00.052Z,27.70
2018-07-28T06:54:28.192Z,28.00
2018-07-28T06:56:56.256Z,28.30
2018-07-28T06:59:24.349Z,28.80
2018-07-28T07:01:52.439Z,29.10
2018-07-28T07:04:20.510Z,29.80
2018-07-28T07:06:48.568Z,31.00
2018-07-28T07:09:16.662Z,31.60
2018-07-28T07:11:44.807Z,32.10
2018-07-28T07:14:12.884Z,32.40
2018-07-28T07:16:40.956Z,32.50
2018-07-28T07:19:09.008Z,33.00
2018-07-28T07:21:37.116Z,33.00
2018-07-28T07:24:05.174Z,32.90
2018-07-28T07:26:33.247Z,33.10
2018-07-28T07:29:01.382Z,33.30
2018-07-28T07:31:29.467Z,33.80
2018-07-28T07:33:57.514Z,34.10
2018-07-28T07:36:25.580Z,34.40
2018-07-28T07:38:53.659Z,34.60
2018-07-28T07:41:21.743Z,34.20
2018-07-28T07:43:49.831Z,33.90
2018-07-28T07:46:17.923Z,34.10
2018-07-28T07:48:46.596Z,34.00
2018-07-28T07:51:14.766Z,33.70
2018-07-28T07:53:42.856Z,34.10
2018-07-28T07:56:10.915Z,34.40
2018-07-28T07:58:38.975Z,34.80
2018-07-28T08:01:07.047Z,34.10
2018-07-28T08:03:35.116Z,34.20
2018-07-28T08:06:03.199Z,34.00
2018-07-28T08:08:31.310Z,34.10
2018-07-28T08:10:59.395Z,34.50
2018-07-28T08:13:27.462Z,34.90
2018-07-28T08:15:55.526Z,34.70
2018-07-28T08:18:23.602Z,35.00
2018-07-28T08:20:51.732Z,35.20
2018-07-28T08:23:21.839Z,34.90
2018-07-28T08:25:50.016Z,34.90
2018-07-28T08:28:18.966Z,35.10
2018-07-28T08:30:47.029Z,35.20
2018-07-28T08:33:15.169Z,36.30
2018-07-28T08:35:43.249Z,35.80
2018-07-28T08:38:11.320Z,35.90
2018-07-28T08:40:39.372Z,36.00
2018-07-28T08:43:07.809Z,36.40
2018-07-28T08:45:35.900Z,36.10
2018-07-28T08:48:03.979Z,36.40
2018-07-28T08:50:32.040Z,35.70
2018-07-28T08:53:00.149Z,34.80
2018-07-28T08:55:28.208Z,34.50
2018-07-28T08:57:56.253Z,34.50
2018-07-28T09:00:24.366Z,35.00
2018-07-28T09:02:52.456Z,35.50
2018-07-28T09:05:21.356Z,35.00
2018-07-28T09:07:49.483Z,35.00
2018-07-28T09:10:18.252Z,34.80
2018-07-28T09:12:46.336Z,34.80
2018-07-28T09:15:14.468Z,35.20
2018-07-28T09:17:42.576Z,35.70
2018-07-28T09:20:10.637Z,35.80
2018-07-28T09:22:39.026Z,35.70
2018-07-28T09:25:07.699Z,35.80
2018-07-28T09:27:35.759Z,35.40
2018-07-28T09:30:04.364Z,35.00
2018-07-28T09:32:32.457Z,35.90
2018-07-28T09:35:00.507Z,37.10
2018-07-28T09:37:28.576Z,37.10
2018-07-28T09:39:56.624Z,35.90
2018-07-28T09:42:24.692Z,35.40
2018-07-28T09:44:52.866Z,36.10
2018-07-28T09:47:20.937Z,35.90
2018-07-28T09:49:49.003Z,35.60
2018-07-28T09:52:17.083Z,36.10
2018-07-28T09:54:45.176Z,37.00
2018-07-28T09:57:13.227Z,37.20
2018-07-28T09:59:41.315Z,36.20
2018-07-28T10:02:09.363Z,34.90
2018-07-28T10:04:37.427Z,35.10
2018-07-28T10:07:05.516Z,35.80
2018-07-28T10:09:33.579Z,36.40
2018-07-28T10:12:01.651Z,36.70
2018-07-28T10:14:29.735Z,37.00
2018-07-28T10:16:57.795Z,36.90
2018-07-28T10:19:25.853Z,37.10
2018-07-28T10:21:53.943Z,35.10
2018-07-28T10:24:22.015Z,34.40
2018-07-28T10:26:50.071Z,33.70
2018-07-28T10:29:18.147Z,33.40
2018-07-28T10:31:46.219Z,33.20
2018-07-28T10:34:14.277Z,33.00
2018-07-28T10:36:42.605Z,33.10
2018-07-28T10:39:12.897Z,34.10
2018-07-28T10:41:41.010Z,34.90
2018-07-28T10:44:09.117Z,35.90
2018-07-28T10:46:37.168Z,36.60
2018-07-28T10:49:05.284Z,36.40
2018-07-28T10:51:33.427Z,36.90
2018-07-28T10:54:01.499Z,37.30
2018-07-28T10:56:29.551Z,36.30
2018-07-28T10:58:57.652Z,35.70
2018-07-28T11:01:25.707Z,34.70
2018-07-28T11:03:53.756Z,34.20
2018-07-28T11:06:21.830Z,34.10
2018-07-28T11:08:49.899Z,33.90
2018-07-28T11:11:17.942Z,33.30
2018-07-28T11:13:46.047Z,32.50
2018-07-28T11:16:14.107Z,32.50
2018-07-28T11:18:42.187Z,32.70
2018-07-28T11:21:10.248Z,32.60
2018-07-28T11:23:49.985Z,32.40
2018-07-28T11:26:18.119Z,32.30
2018-07-28T11:28:46.121Z,32.40
2018-07-28T11:31:25.680Z,32.10
2018-07-28T11:34:05.239Z,32.10
2018-07-28T11:36:44.723Z,31.90
2018-07-28T11:40:25.956Z,31.80
2018-07-28T11:43:05.636Z,31.80
2018-07-28T11:45:33.687Z,31.60
2018-07-28T11:48:01.784Z,31.30
2018-07-28T11:50:29.859Z,31.10
2018-07-28T11:52:57.903Z,30.90
2018-07-28T11:55:26.004Z,30.70
2018-07-28T11:57:54.069Z,30.50
2018-07-28T12:00:22.107Z,30.30
2018-07-28T12:02:50.194Z,30.10
2018-07-28T12:05:18.256Z,30.10
2018-07-28T12:07:46.320Z,30.00
2018-07-28T12:10:14.395Z,30.00
2018-07-28T12:12:42.456Z,30.10
2018-07-28T12:15:10.840Z,30.10
2018-07-28T12:17:38.951Z,30.10
2018-07-28T12:20:07.171Z,30.00
2018-07-28T12:22:35.271Z,30.10
2018-07-28T12:25:03.328Z,30.00
2018-07-28T12:27:31.396Z,29.80
2018-07-28T12:29:59.482Z,29.80
2018-07-28T12:32:27.523Z,29.70
2018-07-28T12:34:55.660Z,29.70
2018-07-28T12:37:23.706Z,29.80
2018-07-28T12:39:51.747Z,29.80
2018-07-28T12:42:19.832Z,30.00
2018-07-28T12:44:47.902Z,30.00
2018-07-28T12:47:15.948Z,29.80
2018-07-28T12:49:44.024Z,29.60
2018-07-28T12:52:12.136Z,29.60
2018-07-28T12:54:40.598Z,29.50
2018-07-28T12:57:08.652Z,29.50
2018-07-28T12:59:36.776Z,29.40
2018-07-28T13:02:04.810Z,29.40
2018-07-28T13:04:32.917Z,29.40
2018-07-28T13:07:00.994Z,29.40
2018-07-28T13:09:29.058Z,29.30
2018-07-28T13:11:57.167Z,29.10
2018-07-28T13:14:25.314Z,28.80
2018-07-28T13:16:53.406Z,28.70
2018-07-28T13:19:21.599Z,28.50
2018-07-28T13:21:49.671Z,28.40
2018-07-28T13:24:17.740Z,28.30
2018-07-28T13:26:45.900Z,28.30
2018-07-28T13:29:14.023Z,28.10
2018-07-28T13:31:42.119Z,27.90
2018-07-28T13:34:10.255Z,28.00
2018-07-28T13:36:38.327Z,28.00
2018-07-28T13:39:07.451Z,28.00
2018-07-28T13:41:36.024Z,28.10
2018-07-28T13:44:04.139Z,28.10
2018-07-28T13:46:32.235Z,28.30
2018-07-28T13:49:00.364Z,28.50
2018-07-28T13:51:28.395Z,28.60
2018-07-28T13:53:56.435Z,28.70
2018-07-28T13:56:24.531Z,28.80
2018-07-28T13:58:52.615Z,28.90
2018-07-28T14:01:20.699Z,28.90
2018-07-28T14:03:48.780Z,29.00
2018-07-28T14:06:16.880Z,28.90
2018-07-28T14:08:45.004Z,28.90
2018-07-28T14:11:13.087Z,29.10
2018-07-28T14:13:41.200Z,29.20
2018-07-28T14:16:09.313Z,29.10
2018-07-28T14:18:37.395Z,29.10
2018-07-28T14:21:05.455Z,29.10
2018-07-28T14:23:33.519Z,28.90
2018-07-28T14:26:01.593Z,28.80
2018-07-28T14:28:29.648Z,28.70
2018-07-28T14:30:57.706Z,28.50
2018-07-28T14:33:25.820Z,28.60
2018-07-28T14:35:53.916Z,28.90
2018-07-28T14:38:21.987Z,29.10
2018-07-28T14:40:50.074Z,29.30
2018-07-28T14:43:18.130Z,29.50
2018-07-28T14:45:46.276Z,29.80
2018-07-28T14:48:14.283Z,30.00
2018-07-28T14:50:42.349Z,30.20
2018-07-28T14:53:11.338Z,30.40
2018-07-28T14:55:39.418Z,30.40
2018-07-28T14:58:07.483Z,30.40
2018-07-28T15:00:35.600Z,30.40
2018-07-28T15:03:03.656Z,30.20
2018-07-28T15:05:31.726Z,30.10
2018-07-28T15:07:59.815Z,30.20
2018-07-28T15:10:27.883Z,30.10
2018-07-28T15:12:55.944Z,30.10
2018-07-28T15:15:24.069Z,30.10
2018-07-28T15:17:52.162Z,30.10
2018-07-28T15:20:20.247Z,30.10
2018-07-28T15:22:48.343Z,30.10
2018-07-28T15:25:16.415Z,30.20
2018-07-28T15:27:44.627Z,30.10
2018-07-28T15:30:12.700Z,30.00
2018-07-28T15:32:40.799Z,29.90
2018-07-28T15:35:08.912Z,29.90
2018-07-28T15:37:36.982Z,29.80
2018-07-28T15:40:05.076Z,29.80
2018-07-28T15:42:33.255Z,29.90
2018-07-28T15:45:01.324Z,30.00
2018-07-28T15:47:29.397Z,30.10
2018-07-28T15:49:57.471Z,30.10
2018-07-28T15:52:25.642Z,30.10
2018-07-28T15:54:53.855Z,30.30
2018-07-28T15:57:21.943Z,30.30
2018-07-28T15:59:49.995Z,30.40
2018-07-28T16:02:18.071Z,30.40
2018-07-28T16:04:46.247Z,30.30
2018-07-28T16:07:14.370Z,30.20
2018-07-28T16:09:42.438Z,30.10
2018-07-28T16:12:10.551Z,30.10
2018-07-28T16:14:38.655Z,30.10
2018-07-28T16:17:06.755Z,30.00
2018-07-28T16:19:34.861Z,30.00
2018-07-28T16:22:02.907Z,29.90
2018-07-28T16:24:30.959Z,29.80
2018-07-28T16:26:59.055Z,29.70
2018-07-28T16:29:27.102Z,29.60
2018-07-28T16:31:57.592Z,29.60
2018-07-28T16:34:25.679Z,29.50
2018-07-28T16:36:53.747Z,29.50
2018-07-28T16:39:21.821Z,29.50
2018-07-28T16:41:49.932Z,29.40
2018-07-28T16:44:18.010Z,29.40
2018-07-28T16:46:46.072Z,29.40
2018-07-28T16:49:14.155Z,29.30
2018-07-28T16:51:42.223Z,29.30
2018-07-28T16:54:10.307Z,29.20
2018-07-28T16:56:38.388Z,29.20
2018-07-28T16:59:06.458Z,29.20
2018-07-28T17:01:34.503Z,29.20
2018-07-28T17:04:02.607Z,29.20
2018-07-28T17:06:30.715Z,29.10
2018-07-28T17:08:58.828Z,29.10
2018-07-28T17:11:26.871Z,29.10
2018-07-28T17:13:54.961Z,29.10
2018-07-28T17:16:23.039Z,29.10
2018-07-28T17:18:51.086Z,29.10
2018-07-28T17:21:19.191Z,29.10
2018-07-28T17:23:47.358Z,29.10
2018-07-28T17:26:15.455Z,28.90
2018-07-28T17:28:43.663Z,28.80
2018-07-28T17:31:11.773Z,28.70
2018-07-28T17:33:39.852Z,28.60
2018-07-28T17:36:07.996Z,28.50
2018-07-28T17:38:36.061Z,28.50
2018-07-28T17:41:04.212Z,28.20
2018-07-28T17:43:32.307Z,27.80
2018-07-28T17:46:00.443Z,27.80
2018-07-28T17:48:28.531Z,27.70
2018-07-28T17:50:56.620Z,27.40
2018-07-28T17:53:24.791Z,27.30
2018-07-28T17:55:52.849Z,27.30
2018-07-28T17:58:21.093Z,27.10
2018-07-28T18:00:49.251Z,27.10
2018-07-28T18:03:17.364Z,27.10
2018-07-28T18:05:45.511Z,27.00
2018-07-28T18:08:13.607Z,27.00
2018-07-28T18:10:41.698Z,27.00
2018-07-28T18:13:09.831Z,26.90
2018-07-28T18:15:37.938Z,26.70
2018-07-28T18:18:06.012Z,26.60
2018-07-28T18:20:34.063Z,26.50
2018-07-28T18:23:02.207Z,26.50
2018-07-28T18:25:30.283Z,26.30
2018-07-28T18:27:58.375Z,26.30
2018-07-28T18:30:26.462Z,26.20
2018-07-28T18:32:54.599Z,26.10
2018-07-28T18:35:22.815Z,26.10
2018-07-28T18:37:50.926Z,26.00
2018-07-28T18:40:19.003Z,25.80
2018-07-28T18:42:47.068Z,25.60
2018-07-28T18:45:15.214Z,25.60
2018-07-28T18:47:43.331Z,25.50
2018-07-28T18:50:11.435Z,25.40
2018-07-28T18:52:39.571Z,25.40
2018-07-28T18:55:07.746Z,25.30
2018-07-28T18:57:35.842Z,25.30
2018-07-28T19:00:05.612Z,25.20
2018-07-28T19:02:33.683Z,25.10
2018-07-28T19:05:01.767Z,25.10
2018-07-28T19:09:57.806Z,25.10
2018-07-28T19:12:31.329Z,25.00
2018-07-28T19:14:59.515Z,24.80
2018-07-28T19:17:33.115Z,24.70
2018-07-28T19:20:01.233Z,24.60
2018-07-28T19:22:34.682Z,24.40
2018-07-28T19:25:02.754Z,24.10
2018-07-28T19:27:30.815Z,23.90
2018-07-28T19:29:58.919Z,23.90
2018-07-28T19:32:26.955Z,24.00
2018-07-28T19:34:55.023Z,23.90
2018-07-28T19:37:24.561Z,23.70
2018-07-28T19:39:52.680Z,23.80
2018-07-28T19:42:26.293Z,23.70
2018-07-28T19:44:54.371Z,23.70
2018-07-28T19:47:22.443Z,23.80
2018-07-28T19:49:50.571Z,23.80
2018-07-28T19:52:18.639Z,23.70
2018-07-28T19:54:46.711Z,23.80
2018-07-28T19:57:14.796Z,23.80
2018-07-28T19:59:42.889Z,23.80
2018-07-28T20:02:10.959Z,23.70
2018-07-28T20:04:39.074Z,23.60
2018-07-28T20:07:07.199Z,23.60
2018-07-28T20:09:35.271Z,23.60
2018-07-28T20:12:03.369Z,23.50
2018-07-28T20:14:31.467Z,23.50
2018-07-28T20:16:59.583Z,23.50
2018-07-28T20:19:27.667Z,23.50
2018-07-28T20:21:55.739Z,23.50
2018-07-28T20:24:23.811Z,23.50
2018-07-28T20:26:51.967Z,23.50
2018-07-28T20:29:20.039Z,23.50
2018-07-28T21:15:29.471Z,23.50
2018-07-28T21:17:59.159Z,23.00
2018-07-28T21:20:27.247Z,22.90
2018-07-28T21:22:55.319Z,22.90
2018-07-28T21:25:23.371Z,22.90
2018-07-28T21:27:51.442Z,22.90
2018-07-28T21:31:22.596Z,22.90
2018-07-28T21:33:50.675Z,22.90
2018-07-28T21:38:46.694Z,22.90
2018-07-28T21:41:14.759Z,22.90
2018-07-28T21:43:42.818Z,22.90
2018-07-28T21:46:10.910Z,22.90
2018-07-28T21:48:38.983Z,22.90
2018-07-28T21:51:07.068Z,22.90
2018-07-28T21:53:35.144Z,22.80
2018-07-28T21:56:03.231Z,22.80
2018-07-28T21:58:31.305Z,22.80
2018-07-28T22:01:05.948Z,22.80
2018-07-28T22:03:34.240Z,22.80
2018-07-28T22:06:02.384Z,22.90
2018-07-28T22:08:30.467Z,22.80
2018-07-28T22:10:58.628Z,22.80
2018-07-28T22:13:26.952Z,22.80
2018-07-28T22:15:55.036Z,22.80
2018-07-28T22:18:23.141Z,22.80
2018-07-28T22:20:51.195Z,22.80
2018-07-28T22:23:19.320Z,22.70
2018-07-28T22:25:47.391Z,22.70
2018-07-28T22:28:15.479Z,22.70
2018-07-28T22:30:43.574Z,22.70
2018-07-28T22:33:11.642Z,22.70
2018-07-28T22:35:39.698Z,22.70
2018-07-28T22:38:07.783Z,22.70
2018-07-28T22:40:35.900Z,22.60
2018-07-28T22:43:03.991Z,22.70
2018-07-28T22:45:32.088Z,22.70
2018-07-28T22:48:00.144Z,22.70
2018-07-28T22:50:28.226Z,22.70
2018-07-28T22:52:56.303Z,22.70
2018-07-28T22:55:24.362Z,22.70
2018-07-28T22:57:52.410Z,22.70
2018-07-28T23:00:20.648Z,22.70
2018-07-28T23:02:48.727Z,22.70
2018-07-28T23:05:16.797Z,22.60
2018-07-28T23:07:44.884Z,22.60
2018-07-28T23:10:12.958Z,22.60
2018-07-28T23:12:41.031Z,22.60
2018-07-28T23:15:09.127Z,22.50
2018-07-28T23:17:37.196Z,22.20
2018-07-28T23:20:05.419Z,22.10
2018-07-28T23:22:33.506Z,22.00
2018-07-28T23:25:01.560Z,22.00
2018-07-28T23:27:29.787Z,22.00
2018-07-28T23:29:57.843Z,22.10
2018-07-28T23:32:25.907Z,22.10
2018-07-28T23:34:54.001Z,22.10
2018-07-28T23:37:22.077Z,22.10
2018-07-28T23:39:50.147Z,22.10
2018-07-28T23:42:18.262Z,22.10
2018-07-28T23:44:46.331Z,22.10
2018-07-28T23:47:14.420Z,22.10
2018-07-28T23:49:42.519Z,22.10
2018-07-28T23:52:10.593Z,22.00
2018-07-28T23:54:38.773Z,22.10
2018-07-28T23:57:06.823Z,22.10
2018-07-28T23:59:34.936Z,21.80
